Hauptseite
METAR-TAF:

METAR-TAF

Flughäfen :

Heeresflugplatz Bückeburg

Bückeburg, Deutschland

Breite: 52-17N, Länge: 009-05E, Höhe: 70 m

Beobachtung

Neuester Wetterbericht von vor 41 Minuten, um 22:20 UTC
Wind 5 kt aus Ost
Temperatur 3°C
Luftfeuchtigkeit 87%
Luftdruck 1032 hPa
Sichtweite: 8000 m

METAR: ETHB 162220Z AUTO 08005KT 8000 // ////// 03/01 Q1032 ///

Zeit: 00:01 (23:01 UTC)

Prognose

Neuester Wetterbericht von vor 12 Stunden und 28 Minuten, um 10:33 UTC
Gültige Prognose vom 16 um 09 UTC bis 16 um 18 UTC
Wind 10 kt aus Süd/Südost
Sichtweite: 1100 m
Himmel klar

TAF: ETHB 161033Z 1609/1618 16010KT 9999 NSW SKC CANCEL 1100

Wetterbeobachtungen und Prognosen von mehr als 4000 Flughäfen (METAR und TAF Bericht).

Die verfügbaren Stationen werden durch gelbe und rote Markierungen auf der Karte dargestellt.

Führen Sie die Maus auf sie, um den Namen der Station zu sehen.

Darauf klicken, um die Beobachtung von Wetterbeobachtungen und Prognosen zu sehen.

Um die Karte zu ändern : klicken Sie auf den grünen Tasten mit einem schwarzen Kreuz Zum Vergrößern, auf den grünen Button mit einem Gedankenstrich zu verkleinern, oder auf die grünen Pfeile für benachbarte Karten.


METAR-TAF: